Time;durP1;ratioP1;P1;durP2;ratioP2;P2;SDS_P1;SDS_P2;PMS_P1;PMS_P2;Temp;Humidity;BMP_temperature;BMP_pressure;BME280_temperature;BME280_humidity;BME280_pressure;Samples;Min_cycle;Max_cycle;Signal;HPM_P1;HPM_P2
2023/05/11 00:00:15;;;;;;;2.57;1.63;;;12.90;99.90;;;;;;6100778;23;20180;-73
2023/05/11 00:02:40;;;;;;;2.07;1.87;;;12.80;99.90;;;;;;6103622;23;20172;-74
2023/05/11 00:05:06;;;;;;;3.60;1.70;;;12.70;99.90;;;;;;6103932;23;20224;-72
2023/05/11 00:07:32;;;;;;;2.37;1.50;;;12.60;99.90;;;;;;6104002;23;20162;-74
2023/05/11 00:09:57;;;;;;;2.23;1.40;;;12.50;99.90;;;;;;6101011;23;20268;-74
2023/05/11 00:12:23;;;;;;;1.83;1.40;;;12.40;99.90;;;;;;6099727;23;20574;-73
2023/05/11 00:14:50;;;;;;;1.60;1.50;;;12.30;99.90;;;;;;6103021;23;20211;-77
2023/05/11 00:17:17;;;;;;;1.20;1.07;;;12.30;99.90;;;;;;6086158;23;20422;-73
2023/05/11 00:19:43;;;;;;;2.03;1.30;;;12.20;99.90;;;;;;6098452;23;20439;-74
2023/05/11 00:22:08;;;;;;;6.67;1.90;;;12.20;99.90;;;;;;6100417;23;20501;-72
2023/05/11 00:24:34;;;;;;;4.07;1.60;;;12.20;99.90;;;;;;6100052;23;20239;-74
2023/05/11 00:26:59;;;;;;;2.50;1.60;;;12.20;99.90;;;;;;6100436;23;20137;-73
2023/05/11 00:29:25;;;;;;;1.60;1.50;;;12.10;99.90;;;;;;6099681;23;20240;-73
2023/05/11 00:31:50;;;;;;;1.60;1.40;;;12.10;99.90;;;;;;6100300;23;20137;-72
2023/05/11 00:34:16;;;;;;;3.20;1.90;;;12.10;99.90;;;;;;6076048;23;20224;-73
2023/05/11 00:36:42;;;;;;;2.20;1.80;;;12.10;99.90;;;;;;6074891;23;20281;-72
2023/05/11 00:39:10;;;;;;;2.83;2.17;;;12.10;99.90;;;;;;6098269;23;20199;-75
2023/05/11 00:41:37;;;;;;;4.13;2.20;;;12.10;99.90;;;;;;6098896;23;20381;-73
2023/05/11 00:44:02;;;;;;;3.20;2.43;;;12.00;99.90;;;;;;6074301;23;20865;-73
2023/05/11 00:46:28;;;;;;;3.43;2.00;;;12.00;99.90;;;;;;6100294;23;20137;-73
2023/05/11 00:48:54;;;;;;;3.93;2.40;;;12.00;99.90;;;;;;6099215;23;20212;-74
2023/05/11 00:51:20;;;;;;;2.73;2.50;;;12.00;99.90;;;;;;6099247;23;20173;-73
2023/05/11 00:53:46;;;;;;;3.63;2.40;;;12.00;99.90;;;;;;6074996;23;20231;-73
2023/05/11 00:56:12;;;;;;;3.60;2.80;;;12.00;99.90;;;;;;6074858;23;20361;-76
2023/05/11 00:58:38;;;;;;;3.10;2.07;;;12.00;99.90;;;;;;6097821;23;20798;-73
2023/05/11 01:01:04;;;;;;;6.90;3.33;;;12.00;99.90;;;;;;6099872;23;20172;-74
2023/05/11 01:03:30;;;;;;;4.23;2.60;;;11.90;99.90;;;;;;6099659;23;20184;-72
2023/05/11 01:06:10;;;;;;;3.20;2.63;;;11.90;99.90;;;;;;6101526;23;20361;-74
2023/05/11 01:08:46;;;;;;;2.73;2.20;;;11.90;99.90;;;;;;6103484;23;20608;-73
2023/05/11 01:11:22;;;;;;;2.80;2.30;;;11.90;99.90;;;;;;6098642;23;20368;-73
2023/05/11 01:13:54;;;;;;;3.63;2.70;;;11.90;99.90;;;;;;6099979;23;20392;-73
2023/05/11 01:16:23;;;;;;;2.93;2.00;;;12.00;99.90;;;;;;6099978;23;20375;-74
2023/05/11 01:19:00;;;;;;;2.70;2.50;;;12.00;99.90;;;;;;6098240;23;20849;-75
2023/05/11 01:21:32;;;;;;;2.30;1.90;;;12.10;99.90;;;;;;6098886;23;20387;-78
2023/05/11 01:24:03;;;;;;;2.97;1.50;;;12.10;99.90;;;;;;6099895;23;20408;-76
2023/05/11 01:26:46;;;;;;;2.87;1.87;;;12.10;99.90;;;;;;6099285;23;20372;-76
2023/05/11 01:29:43;;;;;;;3.73;1.97;;;12.20;99.90;;;;;;6097782;23;20404;-73
2023/05/11 01:32:19;;;;;;;5.80;3.30;;;12.20;99.90;;;;;;6074453;23;20389;-73
2023/05/11 01:34:46;;;;;;;2.60;2.30;;;12.20;99.90;;;;;;6099573;23;20364;-74
2023/05/11 01:37:20;;;;;;;5.30;4.00;;;12.20;99.90;;;;;;6074890;23;20692;-73
2023/05/11 01:39:53;;;;;;;6.90;4.00;;;12.30;99.90;;;;;;6097883;23;20639;-72
2023/05/11 01:42:22;;;;;;;5.13;4.30;;;12.20;99.90;;;;;;6074317;23;20435;-73
2023/05/11 01:44:51;;;;;;;4.73;3.70;;;12.20;99.90;;;;;;6100360;23;20388;-72
2023/05/11 01:47:19;;;;;;;4.63;4.10;;;12.20;99.90;;;;;;6074782;23;20365;-73
2023/05/11 01:49:46;;;;;;;5.00;3.70;;;12.00;99.90;;;;;;6102556;23;20380;-72
2023/05/11 01:52:14;;;;;;;8.10;4.53;;;11.90;99.90;;;;;;6103611;23;20361;-75
2023/05/11 01:54:43;;;;;;;5.00;3.67;;;11.90;99.90;;;;;;6103079;23;20388;-73
2023/05/11 01:57:11;;;;;;;8.73;2.87;;;11.80;99.90;;;;;;6099228;23;20623;-72
2023/05/11 01:59:39;;;;;;;4.73;2.67;;;11.80;99.90;;;;;;6099526;23;20527;-73
2023/05/11 02:02:07;;;;;;;3.83;2.70;;;11.80;99.90;;;;;;6074513;23;20794;-73
2023/05/11 02:04:34;;;;;;;3.53;2.37;;;11.80;99.90;;;;;;6099201;23;20428;-71
2023/05/11 02:07:01;;;;;;;2.37;2.07;;;11.90;99.90;;;;;;6074404;23;20377;-74
2023/05/11 02:09:29;;;;;;;4.20;2.70;;;11.90;99.90;;;;;;6098455;23;20405;-73
2023/05/11 02:11:56;;;;;;;3.80;2.70;;;12.00;99.90;;;;;;6097777;23;20450;-73
2023/05/11 02:14:24;;;;;;;5.43;4.00;;;12.10;99.90;;;;;;6073914;23;20503;-74
2023/05/11 02:16:51;;;;;;;6.63;4.53;;;12.20;99.90;;;;;;6101217;23;20364;-73
2023/05/11 02:19:18;;;;;;;5.47;3.90;;;12.20;99.90;;;;;;6104280;23;20475;-73
2023/05/11 02:21:45;;;;;;;4.63;4.00;;;12.20;99.90;;;;;;6103354;23;20383;-74
2023/05/11 02:24:11;;;;;;;7.07;5.23;;;12.30;99.90;;;;;;6099189;23;20495;-73
2023/05/11 02:26:36;;;;;;;6.60;4.63;;;12.30;99.90;;;;;;6097698;23;20376;-73
2023/05/11 02:29:02;;;;;;;5.57;4.80;;;12.40;99.90;;;;;;6098095;23;20811;-73
2023/05/11 02:31:31;;;;;;;6.67;4.23;;;12.40;99.90;;;;;;6074051;23;20630;-72
2023/05/11 02:34:06;;;;;;;8.20;4.77;;;12.40;99.90;;;;;;6098157;23;20427;-73
2023/05/11 02:36:36;;;;;;;6.20;4.60;;;12.40;99.90;;;;;;6099244;23;20368;-74
2023/05/11 02:39:08;;;;;;;5.90;5.27;;;12.40;99.90;;;;;;6097087;23;20405;-73
2023/05/11 02:41:40;;;;;;;6.03;5.00;;;12.40;99.90;;;;;;6073986;23;20528;-73
2023/05/11 02:44:11;;;;;;;9.07;4.70;;;12.50;99.90;;;;;;6099088;23;20425;-72
2023/05/11 02:46:39;;;;;;;7.33;5.00;;;12.40;99.90;;;;;;6074089;23;20432;-74
2023/05/11 02:49:08;;;;;;;5.30;4.47;;;12.40;99.90;;;;;;6097040;23;20872;-73
2023/05/11 02:51:40;;;;;;;5.43;4.27;;;12.30;99.90;;;;;;6073818;23;20514;-73
2023/05/11 02:54:11;;;;;;;7.50;5.00;;;12.20;99.90;;;;;;6099893;23;20373;-73
2023/05/11 02:56:41;;;;;;;7.07;5.27;;;12.10;99.90;;;;;;6097631;23;20448;-73
2023/05/11 02:59:08;;;;;;;5.90;4.50;;;12.00;99.90;;;;;;6098344;23;20420;-71
2023/05/11 03:01:34;;;;;;;4.20;3.77;;;12.00;99.90;;;;;;6098024;23;20802;-73
2023/05/11 03:04:03;;;;;;;6.20;5.60;;;11.90;99.90;;;;;;6099153;23;20575;-74
2023/05/11 03:06:30;;;;;;;6.90;5.03;;;11.90;99.90;;;;;;6097576;23;20487;-71
2023/05/11 03:08:56;;;;;;;7.57;5.00;;;11.80;99.90;;;;;;6073731;23;21023;-73
2023/05/11 03:11:24;;;;;;;5.37;4.17;;;11.80;99.90;;;;;;6097734;23;20790;-73
2023/05/11 03:13:50;;;;;;;5.10;4.43;;;11.70;99.90;;;;;;6072628;23;20459;-74
2023/05/11 03:16:17;;;;;;;4.83;4.40;;;11.50;99.90;;;;;;6097439;23;20706;-73
2023/05/11 03:18:43;;;;;;;9.40;5.67;;;11.50;99.90;;;;;;6096960;23;20377;-74
2023/05/11 03:21:09;;;;;;;6.10;5.00;;;11.40;99.90;;;;;;6097902;23;20388;-72
2023/05/11 03:23:36;;;;;;;7.20;5.03;;;11.30;99.90;;;;;;6097851;23;20854;-72
2023/05/11 03:26:05;;;;;;;7.17;5.50;;;11.30;99.90;;;;;;6098613;23;20129;-72
2023/05/11 03:28:31;;;;;;;5.60;5.00;;;11.20;99.90;;;;;;6098251;23;20405;-73
2023/05/11 03:31:01;;;;;;;10.43;8.37;;;11.20;99.90;;;;;;6099940;23;20431;-72
2023/05/11 03:33:29;;;;;;;10.73;7.43;;;11.10;99.90;;;;;;6077722;23;20387;-71
2023/05/11 03:35:58;;;;;;;11.13;7.90;;;11.10;99.90;;;;;;6102624;23;20621;-73
2023/05/11 03:38:26;;;;;;;9.80;6.20;;;11.10;99.90;;;;;;6102435;23;20380;-71
2023/05/11 03:40:54;;;;;;;8.50;6.90;;;11.10;99.90;;;;;;6077690;23;20838;-73
2023/05/11 03:43:21;;;;;;;7.90;5.40;;;11.00;99.90;;;;;;6103666;23;20713;-73
2023/05/11 03:45:56;;;;;;;10.10;7.43;;;10.90;99.90;;;;;;6102662;23;20635;-73
2023/05/11 03:48:22;;;;;;;9.40;6.17;;;10.90;99.90;;;;;;6103966;23;20448;-71
2023/05/11 03:50:49;;;;;;;6.57;4.80;;;10.80;99.90;;;;;;6101305;23;20399;-76
2023/05/11 03:53:15;;;;;;;8.53;6.60;;;10.80;99.90;;;;;;6078038;23;20385;-74
2023/05/11 03:55:41;;;;;;;6.50;5.27;;;10.80;99.90;;;;;;6104051;23;20408;-71
2023/05/11 03:58:10;;;;;;;8.60;6.33;;;10.90;99.90;;;;;;6104493;23;20372;-72
2023/05/11 04:00:40;;;;;;;7.13;5.90;;;10.90;99.90;;;;;;6102047;23;20169;-73
2023/05/11 04:03:10;;;;;;;5.67;4.93;;;11.10;99.90;;;;;;6101689;23;20499;-74
2023/05/11 04:05:37;;;;;;;9.37;6.07;;;11.10;99.90;;;;;;6104270;23;20405;-73
2023/05/11 04:08:05;;;;;;;5.97;5.27;;;11.30;99.90;;;;;;6107449;23;20376;-73
2023/05/11 04:10:33;;;;;;;5.57;4.40;;;11.40;99.90;;;;;;6115155;23;20384;-73
2023/05/11 04:12:58;;;;;;;7.33;6.23;;;11.50;99.90;;;;;;6114287;23;20388;-73
2023/05/11 04:15:24;;;;;;;6.83;5.10;;;11.60;99.90;;;;;;6092254;23;20389;-72
2023/05/11 04:17:49;;;;;;;6.20;4.43;;;11.60;99.90;;;;;;6082842;23;20382;-74
2023/05/11 04:20:15;;;;;;;6.77;4.17;;;11.70;99.90;;;;;;6079233;23;20236;-73
2023/05/11 04:22:40;;;;;;;7.43;5.50;;;11.70;99.90;;;;;;6106103;23;20152;-73
2023/05/11 04:25:06;;;;;;;6.70;5.47;;;11.90;99.90;;;;;;6106096;23;20129;-72
2023/05/11 04:27:33;;;;;;;7.27;5.80;;;11.90;99.90;;;;;;6106837;23;20137;-74
2023/05/11 04:30:00;;;;;;;7.90;6.90;;;12.00;99.90;;;;;;6108320;23;20403;-73
2023/05/11 04:32:29;;;;;;;9.57;7.10;;;12.10;99.90;;;;;;6085589;23;20774;-73
2023/05/11 04:34:55;;;;;;;9.43;5.80;;;12.10;99.90;;;;;;6113338;23;20362;-72
2023/05/11 04:37:22;;;;;;;9.00;6.47;;;12.20;99.90;;;;;;6068543;23;20376;-73
2023/05/11 04:39:49;;;;;;;9.43;7.03;;;12.20;99.90;;;;;;6066318;23;20400;-76
2023/05/11 04:42:14;;;;;;;10.03;6.90;;;12.20;99.90;;;;;;6085456;23;20634;-75
2023/05/11 04:44:42;;;;;;;8.93;6.70;;;12.30;99.90;;;;;;6108411;23;20428;-76
2023/05/11 04:47:08;;;;;;;8.53;5.50;;;12.30;99.90;;;;;;6082356;23;20373;-76
2023/05/11 04:49:33;;;;;;;9.07;6.30;;;12.40;99.90;;;;;;6106907;23;20172;-78
2023/05/11 04:52:00;;;;;;;8.10;6.40;;;12.40;99.90;;;;;;6083576;23;20444;-74
2023/05/11 04:54:26;;;;;;;6.50;5.50;;;12.50;99.90;;;;;;6084206;23;20389;-77
2023/05/11 04:56:52;;;;;;;9.17;8.03;;;12.50;99.90;;;;;;6083676;23;20452;-74
2023/05/11 04:59:18;;;;;;;12.90;9.00;;;12.50;99.90;;;;;;6083113;23;20659;-73
2023/05/11 05:01:44;;;;;;;10.73;8.60;;;12.50;99.90;;;;;;6108162;23;20625;-74
2023/05/11 05:04:09;;;;;;;11.77;9.57;;;12.50;99.90;;;;;;6080977;23;20431;-76
2023/05/11 05:06:37;;;;;;;9.30;7.80;;;12.50;99.90;;;;;;6082545;23;20227;-72
2023/05/11 05:09:03;;;;;;;8.30;6.60;;;12.40;99.90;;;;;;6102754;23;20393;-74
2023/05/11 05:11:28;;;;;;;11.50;7.13;;;12.50;99.90;;;;;;6083885;23;20149;-75
2023/05/11 05:13:55;;;;;;;7.50;6.20;;;12.50;99.90;;;;;;6085266;23;20403;-74
2023/05/11 05:16:21;;;;;;;8.20;6.97;;;12.50;99.90;;;;;;6110316;23;20376;-75
2023/05/11 05:18:47;;;;;;;6.07;5.37;;;12.40;99.90;;;;;;6106347;23;20374;-75
2023/05/11 05:21:13;;;;;;;9.23;6.20;;;12.50;99.90;;;;;;6089665;23;20375;-76
2023/05/11 05:23:39;;;;;;;10.57;7.80;;;12.50;99.90;;;;;;6113958;23;20408;-75
2023/05/11 05:26:05;;;;;;;9.23;7.03;;;12.50;99.90;;;;;;6089589;23;20160;-75
2023/05/11 05:28:34;;;;;;;12.57;9.50;;;12.50;99.90;;;;;;6089412;23;20196;-74
2023/05/11 05:31:00;;;;;;;13.80;8.60;;;12.50;99.90;;;;;;6066864;23;20407;-76
2023/05/11 05:33:26;;;;;;;9.57;7.20;;;12.50;99.90;;;;;;6064011;23;20401;-75
2023/05/11 05:35:52;;;;;;;8.20;6.50;;;12.50;99.90;;;;;;6065645;23;20372;-77
2023/05/11 05:38:19;;;;;;;13.10;9.83;;;12.50;99.90;;;;;;6091273;23;20163;-78
2023/05/11 05:40:45;;;;;;;13.30;10.07;;;12.60;99.90;;;;;;6112774;23;20209;-76
2023/05/11 05:43:11;;;;;;;18.30;13.33;;;12.70;99.90;;;;;;6087980;23;20447;-75
2023/05/11 05:45:37;;;;;;;15.00;10.43;;;12.70;99.90;;;;;;6112363;23;20649;-73
2023/05/11 05:48:04;;;;;;;13.00;10.67;;;12.80;99.90;;;;;;6113100;23;20411;-75
2023/05/11 05:50:32;;;;;;;14.53;10.90;;;12.90;99.90;;;;;;6111647;23;20404;-77
2023/05/11 05:52:58;;;;;;;18.90;13.50;;;13.00;99.90;;;;;;6117100;23;20385;-77
2023/05/11 05:55:25;;;;;;;21.57;15.40;;;13.10;99.90;;;;;;6115524;23;20145;-78
2023/05/11 05:57:52;;;;;;;25.47;16.17;;;13.20;99.90;;;;;;6063612;23;20393;-74
2023/05/11 06:00:18;;;;;;;20.33;14.90;;;13.30;99.90;;;;;;6087072;23;20837;-78
2023/05/11 06:02:52;;;;;;;19.07;14.20;;;13.40;99.90;;;;;;6088263;23;20910;-75
2023/05/11 06:05:22;;;;;;;22.87;15.23;;;13.50;99.90;;;;;;6062042;23;20386;-77
2023/05/11 06:07:48;;;;;;;18.33;14.13;;;13.50;99.90;;;;;;6086298;23;20381;-76
2023/05/11 06:10:14;;;;;;;24.90;15.00;;;13.50;99.90;;;;;;6086617;23;20188;-75
2023/05/11 06:12:39;;;;;;;19.47;12.40;;;13.50;99.90;;;;;;6110150;23;20209;-75
2023/05/11 06:15:06;;;;;;;21.83;15.53;;;13.60;99.90;;;;;;6110718;23;20510;-74
2023/05/11 06:17:32;;;;;;;21.90;16.10;;;13.60;99.90;;;;;;6113089;23;20196;-75
2023/05/11 06:19:58;;;;;;;23.03;16.90;;;13.60;99.90;;;;;;6113916;23;20818;-76
2023/05/11 06:22:27;;;;;;;24.47;18.20;;;13.60;99.90;;;;;;6111987;23;20809;-76
2023/05/11 06:24:53;;;;;;;19.03;15.33;;;13.60;99.90;;;;;;6113075;23;20440;-76
2023/05/11 06:27:20;;;;;;;22.17;16.20;;;13.70;99.90;;;;;;6112797;23;20153;-76
2023/05/11 06:29:47;;;;;;;22.10;16.77;;;13.80;99.90;;;;;;6108752;23;20460;-76
2023/05/11 06:32:14;;;;;;;24.97;18.37;;;14.00;99.90;;;;;;6086780;23;20360;-74
2023/05/11 06:34:41;;;;;;;22.63;16.83;;;14.10;99.90;;;;;;6109379;23;20374;-78
2023/05/11 06:37:09;;;;;;;23.80;15.97;;;14.20;99.90;;;;;;6085882;23;20395;-76
2023/05/11 06:39:38;;;;;;;22.30;16.53;;;14.40;99.90;;;;;;6086501;23;20623;-76
2023/05/11 06:42:06;;;;;;;22.47;16.27;;;14.60;99.90;;;;;;6086106;23;20385;-78
2023/05/11 06:44:33;;;;;;;17.73;14.17;;;14.80;99.90;;;;;;6086804;23;20420;-76
2023/05/11 06:46:59;;;;;;;17.40;15.23;;;15.00;99.90;;;;;;6086335;23;20390;-76
2023/05/11 06:49:25;;;;;;;22.13;16.00;;;15.10;99.90;;;;;;6063651;23;20392;-75
2023/05/11 06:51:51;;;;;;;23.37;16.47;;;15.20;99.90;;;;;;6087250;23;20369;-78
2023/05/11 06:54:17;;;;;;;19.13;15.80;;;15.20;99.90;;;;;;6113947;23;20397;-78
2023/05/11 06:56:43;;;;;;;23.40;15.53;;;15.10;99.90;;;;;;6090228;23;20144;-78
2023/05/11 06:59:11;;;;;;;20.50;14.70;;;15.20;99.90;;;;;;6090132;23;20183;-77
2023/05/11 07:01:37;;;;;;;19.53;15.63;;;15.30;99.90;;;;;;6114662;23;20372;-76
2023/05/11 07:04:03;;;;;;;18.40;14.90;;;15.30;99.90;;;;;;6087079;23;20822;-77
2023/05/11 07:06:29;;;;;;;18.07;15.10;;;15.40;99.90;;;;;;6084736;23;20188;-75
2023/05/11 07:08:55;;;;;;;21.50;14.97;;;15.40;99.90;;;;;;6062036;23;20172;-75
2023/05/11 07:11:21;;;;;;;19.10;14.27;;;15.40;99.90;;;;;;6111620;23;20151;-77
2023/05/11 07:13:47;;;;;;;20.53;15.37;;;15.50;99.90;;;;;;6062132;23;20662;-75
2023/05/11 07:16:12;;;;;;;15.60;12.80;;;15.60;99.90;;;;;;6065498;23;20145;-75
2023/05/11 07:18:38;;;;;;;14.03;10.67;;;15.70;99.90;;;;;;6110141;23;20144;-76
2023/05/11 07:21:03;;;;;;;16.63;12.20;;;16.00;99.90;;;;;;6110000;23;20168;-77
2023/05/11 07:23:29;;;;;;;17.03;14.00;;;16.20;99.90;;;;;;6082734;23;20192;-77
2023/05/11 07:25:56;;;;;;;19.73;15.70;;;16.40;99.90;;;;;;6109866;23;20200;-77
2023/05/11 07:28:22;;;;;;;12.47;10.40;;;16.50;99.90;;;;;;6110983;23;20205;-77
2023/05/11 07:30:48;;;;;;;17.47;12.20;;;16.60;99.90;;;;;;6109695;23;20395;-75
2023/05/11 07:33:14;;;;;;;12.40;10.37;;;16.80;99.90;;;;;;6088022;23;20137;-78
2023/05/11 07:35:39;;;;;;;16.83;13.40;;;16.80;99.90;;;;;;6061107;23;20212;-78
2023/05/11 07:38:06;;;;;;;12.67;9.93;;;16.70;99.90;;;;;;6084503;23;20145;-76
2023/05/11 07:40:33;;;;;;;14.10;10.03;;;16.70;99.90;;;;;;6087466;23;20169;-78
2023/05/11 07:42:59;;;;;;;12.20;9.57;;;16.80;99.90;;;;;;6112734;23;20526;-78
2023/05/11 07:45:28;;;;;;;16.50;12.57;;;16.80;99.90;;;;;;6065645;23;20380;-77
2023/05/11 07:47:53;;;;;;;12.63;10.97;;;16.80;99.90;;;;;;6109780;23;20133;-76
2023/05/11 07:50:19;;;;;;;14.90;13.03;;;16.90;99.90;;;;;;6107101;23;20399;-78
2023/05/11 07:52:44;;;;;;;13.00;11.13;;;17.00;99.90;;;;;;6112533;23;20133;-77
2023/05/11 07:55:10;;;;;;;15.50;13.23;;;17.10;99.90;;;;;;6117358;23;20185;-79
2023/05/11 07:57:37;;;;;;;19.50;13.70;;;16.90;99.90;;;;;;6118714;23;20137;-76
2023/05/11 08:00:04;;;;;;;17.27;14.30;;;16.90;99.90;;;;;;6113229;23;20393;-78
2023/05/11 08:02:37;;;;;;;16.00;12.67;;;16.80;99.90;;;;;;6119992;23;20212;-78
2023/05/11 08:05:03;;;;;;;14.70;11.77;;;16.70;99.90;;;;;;6115756;23;20416;-78
2023/05/11 08:07:29;;;;;;;17.67;14.80;;;16.70;99.90;;;;;;6116359;23;20142;-78
2023/05/11 08:09:54;;;;;;;15.93;12.27;;;16.80;99.90;;;;;;6117848;23;20426;-77
2023/05/11 08:12:20;;;;;;;13.17;11.87;;;17.00;99.90;;;;;;6116993;23;20143;-78
2023/05/11 08:14:46;;;;;;;18.63;14.23;;;17.20;99.80;;;;;;6091685;23;20154;-76
2023/05/11 08:17:12;;;;;;;18.70;13.67;;;17.50;96.80;;;;;;6116468;23;20149;-79
2023/05/11 08:19:38;;;;;;;13.90;10.83;;;17.50;94.90;;;;;;6119857;23;20445;-78
2023/05/11 08:22:04;;;;;;;16.70;15.00;;;17.80;95.30;;;;;;6114120;23;20148;-77
2023/05/11 08:24:29;;;;;;;21.30;15.17;;;18.00;90.80;;;;;;6112671;23;20426;-77
2023/05/11 08:26:55;;;;;;;15.93;14.13;;;18.00;91.00;;;;;;6115659;23;20134;-79
2023/05/11 08:29:21;;;;;;;15.03;12.47;;;17.80;88.40;;;;;;6088981;23;20165;-76
2023/05/11 08:31:48;;;;;;;17.97;13.97;;;17.60;90.80;;;;;;6115889;23;20156;-75
2023/05/11 08:34:14;;;;;;;14.87;13.03;;;17.30;93.60;;;;;;6118822;23;20162;-76
2023/05/11 08:36:39;;;;;;;18.10;14.80;;;17.00;94.70;;;;;;6098052;23;20369;-77
2023/05/11 08:39:05;;;;;;;16.53;14.57;;;16.90;96.70;;;;;;6096502;23;20399;-76
2023/05/11 08:41:31;;;;;;;15.07;13.20;;;16.80;98.00;;;;;;6093366;23;20205;-76
2023/05/11 08:43:58;;;;;;;15.90;14.07;;;16.70;98.00;;;;;;6092677;23;20185;-78
2023/05/11 08:46:27;;;;;;;15.27;13.67;;;16.70;98.20;;;;;;6115631;23;20583;-76
2023/05/11 08:48:54;;;;;;;11.80;10.23;;;16.70;98.00;;;;;;6113481;23;20411;-77
2023/05/11 08:51:19;;;;;;;11.33;10.13;;;17.00;98.10;;;;;;6086048;23;20376;-78
2023/05/11 08:53:45;;;;;;;16.70;13.30;;;17.40;96.70;;;;;;6116668;23;20393;-78
2023/05/11 08:56:11;;;;;;;15.57;14.03;;;17.60;93.40;;;;;;6116017;23;20157;-77
2023/05/11 08:58:37;;;;;;;15.60;13.10;;;17.80;90.10;;;;;;6113718;23;20170;-77
2023/05/11 09:01:05;;;;;;;12.50;11.20;;;17.80;85.40;;;;;;6091489;23;20434;-78
2023/05/11 09:03:34;;;;;;;11.40;10.40;;;18.00;86.10;;;;;;6092473;23;20194;-78
2023/05/11 09:06:05;;;;;;;10.40;9.47;;;18.10;83.20;;;;;;6119077;23;20367;-79
2023/05/11 09:08:35;;;;;;;15.97;10.73;;;18.10;75.70;;;;;;6071550;23;20431;-79
2023/05/11 09:11:01;;;;;;;9.70;8.70;;;18.10;75.80;;;;;;6118192;23;20412;-77
2023/05/11 09:13:28;;;;;;;13.30;11.40;;;18.10;77.50;;;;;;6113339;23;20392;-77
2023/05/11 09:15:54;;;;;;;14.70;13.00;;;18.10;75.80;;;;;;6093706;23;20364;-79
2023/05/11 09:18:19;;;;;;;12.03;10.60;;;17.90;77.70;;;;;;6089376;23;20647;-78
2023/05/11 09:20:51;;;;;;;15.57;13.93;;;17.70;81.60;;;;;;6116143;23;20175;-78
2023/05/11 09:23:17;;;;;;;13.13;11.70;;;17.60;82.50;;;;;;6088899;23;20553;-78
2023/05/11 09:25:43;;;;;;;10.13;9.10;;;17.50;84.60;;;;;;6116211;23;20368;-78
2023/05/11 09:28:17;;;;;;;8.90;8.03;;;17.60;84.50;;;;;;6089793;23;20387;-79
2023/05/11 09:30:48;;;;;;;13.33;11.13;;;17.70;84.70;;;;;;6067501;23;20394;-78
2023/05/11 09:33:21;;;;;;;12.10;10.03;;;17.70;82.00;;;;;;6093706;23;20382;-79
2023/05/11 09:35:48;;;;;;;11.87;10.73;;;17.70;82.10;;;;;;6098514;23;20371;-79
2023/05/11 09:38:15;;;;;;;11.03;9.10;;;17.80;82.00;;;;;;6092251;23;20376;-76
2023/05/11 09:40:52;;;;;;;11.00;9.90;;;17.90;81.90;;;;;;6093008;23;20380;-79
2023/05/11 09:43:18;;;;;;;9.73;8.60;;;18.10;78.40;;;;;;6070144;23;20509;-79
2023/05/11 09:45:46;;;;;;;10.53;9.50;;;17.90;80.10;;;;;;6094005;23;20375;-80
2023/05/11 09:48:34;;;;;;;10.43;8.80;;;17.90;82.60;;;;;;6096445;23;20569;-79
2023/05/11 09:51:07;;;;;;;10.43;9.30;;;18.00;78.70;;;;;;6092224;23;20419;-77
2023/05/11 09:53:44;;;;;;;11.70;9.73;;;17.90;81.60;;;;;;6067664;23;20388;-78
2023/05/11 09:56:14;;;;;;;11.10;8.53;;;18.00;80.40;;;;;;6122934;23;20453;-79
2023/05/11 09:59:03;;;;;;;12.77;10.20;;;18.00;83.90;;;;;;6092568;23;20394;-77
2023/05/11 10:01:32;;;;;;;12.80;11.23;;;17.90;87.90;;;;;;6094833;23;20386;-80
2023/05/11 10:04:02;;;;;;;15.87;9.83;;;17.90;88.30;;;;;;6069205;23;20439;-79
2023/05/11 10:06:46;;;;;;;12.73;9.77;;;17.80;88.90;;;;;;6117484;23;20427;-79
2023/05/11 10:09:14;;;;;;;10.10;9.10;;;17.70;91.80;;;;;;6117526;23;20402;-79
2023/05/11 10:11:44;;;;;;;11.33;10.10;;;17.80;92.20;;;;;;6068563;23;20364;-77
2023/05/11 10:14:12;;;;;;;12.23;9.00;;;18.10;91.60;;;;;;6093367;23;20400;-78
2023/05/11 10:16:40;;;;;;;11.90;8.50;;;18.30;90.30;;;;;;6071279;23;20390;-81
2023/05/11 10:19:07;;;;;;;14.30;10.10;;;18.50;84.70;;;;;;6073322;23;20406;-78
2023/05/11 10:21:34;;;;;;;11.80;10.60;;;18.60;80.30;;;;;;6096490;23;20375;-78
2023/05/11 10:24:02;;;;;;;10.07;9.07;;;18.40;81.00;;;;;;6117664;23;20419;-79
2023/05/11 10:26:33;;;;;;;10.83;9.63;;;18.10;81.60;;;;;;6094978;23;20866;-77
2023/05/11 10:29:00;;;;;;;11.07;9.53;;;18.10;81.10;;;;;;6096065;23;20357;-79
2023/05/11 10:31:27;;;;;;;11.10;9.00;;;18.10;84.60;;;;;;6121561;23;20403;-78
2023/05/11 10:33:53;;;;;;;9.40;8.40;;;18.20;85.40;;;;;;6094493;23;20365;-80
2023/05/11 10:36:23;;;;;;;11.80;8.13;;;18.50;78.60;;;;;;6092977;23;20380;-79
2023/05/11 10:38:48;;;;;;;11.37;8.30;;;18.90;75.50;;;;;;6091185;23;20806;-77
2023/05/11 10:41:31;;;;;;;9.10;7.73;;;19.20;73.60;;;;;;6120707;23;20389;-79
2023/05/11 10:44:18;;;;;;;10.10;7.63;;;19.60;69.30;;;;;;6118228;23;20239;-78
2023/05/11 10:47:03;;;;;;;10.30;9.30;;;19.70;63.30;;;;;;6092861;23;20380;-77
2023/05/11 10:49:41;;;;;;;10.00;9.00;;;19.60;64.90;;;;;;6095342;23;20408;-79
2023/05/11 10:52:20;;;;;;;7.87;6.80;;;19.70;62.60;;;;;;6116904;23;20461;-77
2023/05/11 10:55:19;;;;;;;12.23;7.37;;;19.80;62.70;;;;;;6069988;23;20384;-79
2023/05/11 10:58:14;;;;;;;15.40;9.57;;;19.90;63.00;;;;;;6118606;23;20388;-80
2023/05/11 11:01:03;;;;;;;13.37;10.10;;;19.90;61.50;;;;;;6094267;23;20428;-78
2023/05/11 11:03:29;;;;;;;13.40;9.27;;;20.10;60.90;;;;;;6095199;23;20404;-79
2023/05/11 11:05:55;;;;;;;14.90;10.23;;;20.10;61.70;;;;;;6050124;23;20377;-79
2023/05/11 11:08:21;;;;;;;14.03;11.47;;;20.20;60.50;;;;;;6118060;23;20155;-78
2023/05/11 11:10:50;;;;;;;14.33;12.33;;;20.00;60.60;;;;;;6115071;23;20435;-79
2023/05/11 11:13:23;;;;;;;11.17;10.07;;;19.70;64.40;;;;;;6116254;23;20385;-77
2023/05/11 11:15:52;;;;;;;10.97;8.67;;;19.70;66.00;;;;;;6093275;23;20384;-78
2023/05/11 11:18:22;;;;;;;13.43;10.97;;;20.00;62.60;;;;;;6094674;23;20388;-77
2023/05/11 11:20:51;;;;;;;14.07;11.00;;;20.10;62.90;;;;;;6119873;23;20412;-80
2023/05/11 11:23:40;;;;;;;15.37;12.50;;;19.90;63.00;;;;;;6116107;23;20460;-78
2023/05/11 11:26:07;;;;;;;16.67;12.77;;;19.90;63.10;;;;;;6118313;23;20476;-77
2023/05/11 11:28:55;;;;;;;19.37;14.63;;;19.50;65.00;;;;;;6089064;23;20381;-77
2023/05/11 11:31:27;;;;;;;14.30;10.47;;;19.30;66.60;;;;;;6065220;23;20358;-80
2023/05/11 11:33:57;;;;;;;20.07;13.90;;;19.20;69.10;;;;;;6065906;23;20366;-79
2023/05/11 11:36:57;;;;;;;17.23;14.00;;;19.20;68.00;;;;;;6066186;23;20377;-79
2023/05/11 11:39:27;;;;;;;14.70;11.37;;;19.10;69.90;;;;;;6043182;23;20411;-79
2023/05/11 11:42:06;;;;;;;16.40;12.10;;;19.20;69.70;;;;;;6068502;23;20408;-79
2023/05/11 11:44:37;;;;;;;17.50;13.03;;;19.40;66.10;;;;;;6065732;23;20429;-79
2023/05/11 11:47:18;;;;;;;15.87;12.40;;;19.30;65.60;;;;;;6088803;23;20370;-75
2023/05/11 11:49:48;;;;;;;20.47;13.53;;;19.30;67.30;;;;;;6091343;23;20405;-78
2023/05/11 11:52:29;;;;;;;16.47;12.67;;;19.30;67.20;;;;;;6066003;23;20370;-79
2023/05/11 11:54:58;;;;;;;21.47;14.40;;;19.30;65.90;;;;;;6090348;23;20484;-79
2023/05/11 11:57:32;;;;;;;22.40;13.90;;;19.20;67.20;;;;;;6065902;23;20345;-78
2023/05/11 12:00:04;;;;;;;17.40;13.60;;;19.20;67.10;;;;;;6094932;23;20427;-79
2023/05/11 12:02:41;;;;;;;15.77;12.10;;;19.50;66.80;;;;;;6120404;23;20360;-80
2023/05/11 12:05:18;;;;;;;16.83;12.37;;;19.70;64.30;;;;;;6119051;23;20467;-80
2023/05/11 12:07:47;;;;;;;16.50;12.83;;;19.80;63.60;;;;;;6075626;23;20376;-79
2023/05/11 12:10:16;;;;;;;16.77;13.80;;;19.80;64.30;;;;;;6120630;23;20393;-79
2023/05/11 12:12:49;;;;;;;20.53;12.87;;;19.80;63.90;;;;;;6119255;23;20436;-79
2023/05/11 12:15:25;;;;;;;17.60;12.33;;;19.40;64.20;;;;;;6071410;23;20380;-79
2023/05/11 12:17:51;;;;;;;16.33;10.87;;;19.10;66.10;;;;;;6093648;23;20365;-79
2023/05/11 12:20:21;;;;;;;21.30;15.63;;;19.20;67.90;;;;;;6069869;23;20415;-78
2023/05/11 12:22:48;;;;;;;17.67;12.67;;;19.30;70.20;;;;;;6096681;23;20168;-79
2023/05/11 12:25:20;;;;;;;17.87;12.10;;;19.50;69.90;;;;;;6072710;23;20457;-78
2023/05/11 12:28:02;;;;;;;16.50;12.67;;;19.90;67.50;;;;;;6071793;23;20392;-80
2023/05/11 12:30:32;;;;;;;16.40;13.60;;;20.00;65.80;;;;;;6069872;23;20424;-79
2023/05/11 12:33:00;;;;;;;20.83;13.73;;;20.10;65.50;;;;;;6072639;23;20377;-79
2023/05/11 12:35:28;;;;;;;17.33;12.67;;;20.30;63.60;;;;;;6094484;23;20385;-79
2023/05/11 12:38:03;;;;;;;17.97;13.27;;;20.40;62.80;;;;;;6096787;23;20385;-79
2023/05/11 12:40:30;;;;;;;17.03;13.60;;;20.30;64.10;;;;;;6069127;23;20392;-80
2023/05/11 12:42:58;;;;;;;19.30;13.40;;;20.50;61.50;;;;;;6071377;23;20400;-80